Aérodrome :
LOGIN :

S'inscrire | Disclaimer

   EN    FR    IT 

 










Légende :    VFR   VFR Marginal   IFR   IFR Intensif   IFR Très Intensif
Visi : 
Plafond : 
>= 8 km
>= 3000ft
5 à 8 km
1000 à 3000 ft
1500m à 5 km
500 à 1000 ft
800 à 1500m
200 à 500 ft
< 800m
< 200 ft
Symboles :   Orages  Brouillard  Fortes neiges  Fortes précipitations  Vent > 20 kt
SIGMETs :   Divers  Orages  Givrage  Turbulence  Onde Orograph.  Cendres Volcan.







- Altitude de l'aérodrome : 313 ft
- Code IATA : LEH
- Voir les cartes d'approche


LFOH - Le Havre Octeville

DERNIER METAR :
  • 100230Z AUTO 31016G26KT 9999 FEW023 SCT029 10/05 Q1025

METARs EXPIRÉS :
  • 100200Z AUTO 31018KT 9999 FEW023 10/06 Q1025
  • 100130Z AUTO 31017KT 9999 FEW024/// SCT035/// BKN042/// ///TCU 10/06 Q1025
  • 100100Z AUTO 29017KT 260V320 9999 BKN023/// BKN028/// BKN052/// ///TCU 10/06 Q1025
  • 100030Z AUTO 32015KT 8000 -RA FEW014/// BKN024/// BKN032/// ///TCU 09/06 Q1025
  • 100000Z AUTO 31015KT 280V340 9999 FEW025/// ///TCU 10/06 Q1025

TAF TAF LFOH
Valide du 09 à 12h jusqu'au 10 à 12h UTC


091100Z 0912/1012 29025G40KT 9999 BKN030
TEMPO 0912/0914 4000 SHRA BKN025CB
BECMG 0914/0916 29020G30KT
BECMG 0919/0922 30015KT
ATIS : +33 2 35 54 64 93
Pas de NOTAMs connus pour ce terrain.



MET'MAP, la Météo Aéronautique d'un coup d'oeil ! - Copyright ORBIFLY Décembre 2007 - Disclaimer

ORBIFLY MET'MAP TEAM :

Programmation & Développement : Alexandra Zaïnal
Conception & Développement : Baudouin d'Aumeries
Co-Programmation & Développement : Marc-Olivier Méhu
Soutien technique & logistique : Manuel Goepfert

Contact : metmap@orbifly.com




SOURCES & CREDITS :

   NOAA